sensor_id;sensor_type;location;lat;lon;timestamp;temperature;humidity
6407;DHT22;3236;51.022;6.818;2024-02-26T00:01:32;6.70;99.90
6407;DHT22;3236;51.022;6.818;2024-02-26T00:11:24;6.70;99.90
6407;DHT22;3236;51.022;6.818;2024-02-26T00:18:48;6.60;94.50
6407;DHT22;3236;51.022;6.818;2024-02-26T00:46:00;6.50;99.90
6407;DHT22;3236;51.022;6.818;2024-02-26T00:48:27;6.20;99.90
6407;DHT22;3236;51.022;6.818;2024-02-26T00:50:54;6.50;39.20
6407;DHT22;3236;51.022;6.818;2024-02-26T00:53:21;6.50;1.00
6407;DHT22;3236;51.022;6.818;2024-02-26T00:55:50;6.60;18.40
6407;DHT22;3236;51.022;6.818;2024-02-26T00:58:17;6.60;1.00
6407;DHT22;3236;51.022;6.818;2024-02-26T01:00:45;6.90;99.90
6407;DHT22;3236;51.022;6.818;2024-02-26T01:03:14;6.70;1.00
6407;DHT22;3236;51.022;6.818;2024-02-26T01:05:41;6.70;99.90
6407;DHT22;3236;51.022;6.818;2024-02-26T01:08:08;6.80;99.90
6407;DHT22;3236;51.022;6.818;2024-02-26T01:10:35;6.80;99.90
6407;DHT22;3236;51.022;6.818;2024-02-26T01:13:05;6.60;99.90
6407;DHT22;3236;51.022;6.818;2024-02-26T01:15:33;6.80;99.90
6407;DHT22;3236;51.022;6.818;2024-02-26T01:18:02;6.60;99.90
6407;DHT22;3236;51.022;6.818;2024-02-26T01:20:30;7.00;99.90
6407;DHT22;3236;51.022;6.818;2024-02-26T01:22:57;6.70;99.90
6407;DHT22;3236;51.022;6.818;2024-02-26T01:25:24;6.70;99.90
6407;DHT22;3236;51.022;6.818;2024-02-26T01:30:19;6.50;1.00
6407;DHT22;3236;51.022;6.818;2024-02-26T01:32:46;6.70;1.00
6407;DHT22;3236;51.022;6.818;2024-02-26T01:35:16;6.80;89.60
6407;DHT22;3236;51.022;6.818;2024-02-26T01:37:48;6.50;99.90
6407;DHT22;3236;51.022;6.818;2024-02-26T01:45:15;6.70;99.90
6407;DHT22;3236;51.022;6.818;2024-02-26T01:50:14;6.80;99.90
6407;DHT22;3236;51.022;6.818;2024-02-26T01:55:10;6.70;99.90
6407;DHT22;3236;51.022;6.818;2024-02-26T01:57:40;6.80;99.90
6407;DHT22;3236;51.022;6.818;2024-02-26T02:00:09;6.40;99.90
6407;DHT22;3236;51.022;6.818;2024-02-26T02:02:37;6.60;99.90
6407;DHT22;3236;51.022;6.818;2024-02-26T02:05:08;6.90;99.90
6407;DHT22;3236;51.022;6.818;2024-02-26T02:07:42;6.60;99.90
6407;DHT22;3236;51.022;6.818;2024-02-26T02:10:11;6.60;99.90
6407;DHT22;3236;51.022;6.818;2024-02-26T02:15:06;6.40;99.90
6407;DHT22;3236;51.022;6.818;2024-02-26T02:17:34;6.20;99.90
6407;DHT22;3236;51.022;6.818;2024-02-26T02:22:30;6.60;99.90
6407;DHT22;3236;51.022;6.818;2024-02-26T02:27:27;6.30;99.90
6407;DHT22;3236;51.022;6.818;2024-02-26T02:29:57;6.70;99.90
6407;DHT22;3236;51.022;6.818;2024-02-26T02:32:24;6.60;99.90
6407;DHT22;3236;51.022;6.818;2024-02-26T02:34:58;6.40;99.90
6407;DHT22;3236;51.022;6.818;2024-02-26T02:37:25;6.50;99.90
6407;DHT22;3236;51.022;6.818;2024-02-26T02:39:54;6.60;99.90
6407;DHT22;3236;51.022;6.818;2024-02-26T02:42:23;6.50;99.90
6407;DHT22;3236;51.022;6.818;2024-02-26T02:44:50;6.20;99.90
6407;DHT22;3236;51.022;6.818;2024-02-26T02:47:17;6.30;99.90
6407;DHT22;3236;51.022;6.818;2024-02-26T02:49:44;6.50;99.90
6407;DHT22;3236;51.022;6.818;2024-02-26T02:52:11;6.50;99.90
6407;DHT22;3236;51.022;6.818;2024-02-26T02:54:38;6.70;99.90
6407;DHT22;3236;51.022;6.818;2024-02-26T02:57:08;6.50;99.90
6407;DHT22;3236;51.022;6.818;2024-02-26T03:02:03;6.10;99.90
6407;DHT22;3236;51.022;6.818;2024-02-26T03:04:30;6.50;99.90
6407;DHT22;3236;51.022;6.818;2024-02-26T03:06:57;6.50;99.90
6407;DHT22;3236;51.022;6.818;2024-02-26T03:09:24;6.50;99.90
6407;DHT22;3236;51.022;6.818;2024-02-26T03:11:51;6.50;99.90
6407;DHT22;3236;51.022;6.818;2024-02-26T03:14:19;6.50;99.90
6407;DHT22;3236;51.022;6.818;2024-02-26T03:16:46;6.60;99.90
6407;DHT22;3236;51.022;6.818;2024-02-26T03:19:14;6.50;99.90
6407;DHT22;3236;51.022;6.818;2024-02-26T03:21:41;6.60;99.90
6407;DHT22;3236;51.022;6.818;2024-02-26T03:24:08;6.40;99.90
6407;DHT22;3236;51.022;6.818;2024-02-26T03:26:36;6.50;99.90
6407;DHT22;3236;51.022;6.818;2024-02-26T03:29:03;6.70;99.90
6407;DHT22;3236;51.022;6.818;2024-02-26T03:31:31;6.50;99.90
6407;DHT22;3236;51.022;6.818;2024-02-26T03:36:25;7.00;99.90
6407;DHT22;3236;51.022;6.818;2024-02-26T03:38:52;6.40;99.90
6407;DHT22;3236;51.022;6.818;2024-02-26T03:41:19;6.70;99.90
6407;DHT22;3236;51.022;6.818;2024-02-26T03:43:46;6.50;99.90
6407;DHT22;3236;51.022;6.818;2024-02-26T03:46:13;6.60;99.90
6407;DHT22;3236;51.022;6.818;2024-02-26T03:48:41;6.60;99.90
6407;DHT22;3236;51.022;6.818;2024-02-26T03:51:09;6.50;99.90
6407;DHT22;3236;51.022;6.818;2024-02-26T03:53:36;6.50;99.90
6407;DHT22;3236;51.022;6.818;2024-02-26T03:56:04;6.50;99.90
6407;DHT22;3236;51.022;6.818;2024-02-26T03:58:31;6.60;99.90
6407;DHT22;3236;51.022;6.818;2024-02-26T04:00:59;6.60;99.90
6407;DHT22;3236;51.022;6.818;2024-02-26T04:03:28;6.60;99.90
6407;DHT22;3236;51.022;6.818;2024-02-26T04:05:57;6.60;99.90
6407;DHT22;3236;51.022;6.818;2024-02-26T04:08:24;6.60;99.90
6407;DHT22;3236;51.022;6.818;2024-02-26T04:10:51;6.60;99.90
6407;DHT22;3236;51.022;6.818;2024-02-26T04:13:18;6.60;99.90
6407;DHT22;3236;51.022;6.818;2024-02-26T04:15:45;6.60;99.90
6407;DHT22;3236;51.022;6.818;2024-02-26T04:18:18;6.70;99.90
6407;DHT22;3236;51.022;6.818;2024-02-26T04:20:45;6.60;99.90
6407;DHT22;3236;51.022;6.818;2024-02-26T04:23:13;6.60;99.90
6407;DHT22;3236;51.022;6.818;2024-02-26T04:25:40;6.60;99.90
6407;DHT22;3236;51.022;6.818;2024-02-26T04:28:07;6.40;99.90
6407;DHT22;3236;51.022;6.818;2024-02-26T04:30:34;6.60;99.90
6407;DHT22;3236;51.022;6.818;2024-02-26T04:35:28;6.60;99.90
6407;DHT22;3236;51.022;6.818;2024-02-26T04:37:56;6.30;99.90
6407;DHT22;3236;51.022;6.818;2024-02-26T04:40:24;6.80;99.90
6407;DHT22;3236;51.022;6.818;2024-02-26T04:45:19;6.60;99.90
6407;DHT22;3236;51.022;6.818;2024-02-26T04:47:46;6.70;99.90
6407;DHT22;3236;51.022;6.818;2024-02-26T04:50:13;6.70;99.90
6407;DHT22;3236;51.022;6.818;2024-02-26T04:52:41;6.70;99.90
6407;DHT22;3236;51.022;6.818;2024-02-26T04:55:08;6.60;99.90
6407;DHT22;3236;51.022;6.818;2024-02-26T04:57:36;6.60;99.90
6407;DHT22;3236;51.022;6.818;2024-02-26T05:00:04;7.20;99.90
6407;DHT22;3236;51.022;6.818;2024-02-26T05:02:31;6.60;99.90
6407;DHT22;3236;51.022;6.818;2024-02-26T05:04:59;6.70;99.90
6407;DHT22;3236;51.022;6.818;2024-02-26T05:09:53;6.60;99.90
6407;DHT22;3236;51.022;6.818;2024-02-26T05:12:21;6.60;99.90
6407;DHT22;3236;51.022;6.818;2024-02-26T05:14:50;6.80;99.90
6407;DHT22;3236;51.022;6.818;2024-02-26T05:17:16;6.30;99.90
6407;DHT22;3236;51.022;6.818;2024-02-26T05:19:43;6.70;99.90
6407;DHT22;3236;51.022;6.818;2024-02-26T05:22:10;6.80;99.90
6407;DHT22;3236;51.022;6.818;2024-02-26T05:27:07;6.60;99.90
6407;DHT22;3236;51.022;6.818;2024-02-26T05:32:03;6.60;99.90
6407;DHT22;3236;51.022;6.818;2024-02-26T05:34:30;6.40;99.90
6407;DHT22;3236;51.022;6.818;2024-02-26T05:36:57;6.50;99.90
6407;DHT22;3236;51.022;6.818;2024-02-26T05:41:52;6.80;99.90
6407;DHT22;3236;51.022;6.818;2024-02-26T05:44:19;6.50;99.90
6407;DHT22;3236;51.022;6.818;2024-02-26T05:49:14;7.00;99.90
6407;DHT22;3236;51.022;6.818;2024-02-26T05:54:14;6.40;99.90
6407;DHT22;3236;51.022;6.818;2024-02-26T06:06:32;6.60;99.90
6407;DHT22;3236;51.022;6.818;2024-02-26T06:08:59;6.40;99.90
6407;DHT22;3236;51.022;6.818;2024-02-26T06:18:57;6.80;99.90
6407;DHT22;3236;51.022;6.818;2024-02-26T06:23:54;6.60;99.90
6407;DHT22;3236;51.022;6.818;2024-02-26T06:36:13;6.40;99.90
6407;DHT22;3236;51.022;6.818;2024-02-26T06:41:09;6.90;99.90
6407;DHT22;3236;51.022;6.818;2024-02-26T06:43:40;6.60;99.90
6407;DHT22;3236;51.022;6.818;2024-02-26T06:46:07;6.70;99.90
6407;DHT22;3236;51.022;6.818;2024-02-26T06:48:37;6.90;99.90
6407;DHT22;3236;51.022;6.818;2024-02-26T06:51:04;6.90;99.90
6407;DHT22;3236;51.022;6.818;2024-02-26T06:56:05;6.70;99.90
6407;DHT22;3236;51.022;6.818;2024-02-26T07:01:03;6.60;99.90
6407;DHT22;3236;51.022;6.818;2024-02-26T07:03:30;6.50;99.90
6407;DHT22;3236;51.022;6.818;2024-02-26T07:08:31;6.30;99.90
6407;DHT22;3236;51.022;6.818;2024-02-26T07:11:00;6.80;99.90
6407;DHT22;3236;51.022;6.818;2024-02-26T07:15:55;6.80;99.90
6407;DHT22;3236;51.022;6.818;2024-02-26T07:18:22;6.90;99.90
6407;DHT22;3236;51.022;6.818;2024-02-26T07:28:12;7.00;99.90
6407;DHT22;3236;51.022;6.818;2024-02-26T07:30:39;6.60;99.90
6407;DHT22;3236;51.022;6.818;2024-02-26T07:33:08;6.80;99.90
6407;DHT22;3236;51.022;6.818;2024-02-26T07:35:35;6.50;99.90
6407;DHT22;3236;51.022;6.818;2024-02-26T07:38:04;6.40;99.90
6407;DHT22;3236;51.022;6.818;2024-02-26T07:40:31;6.40;99.90
6407;DHT22;3236;51.022;6.818;2024-02-26T07:43:00;6.30;99.90
6407;DHT22;3236;51.022;6.818;2024-02-26T07:45:27;6.30;99.90
6407;DHT22;3236;51.022;6.818;2024-02-26T07:47:54;6.80;99.90
6407;DHT22;3236;51.022;6.818;2024-02-26T07:50:25;6.70;99.90
6407;DHT22;3236;51.022;6.818;2024-02-26T07:52:52;8.00;99.90
6407;DHT22;3236;51.022;6.818;2024-02-26T07:55:19;6.70;99.90
6407;DHT22;3236;51.022;6.818;2024-02-26T07:57:47;7.10;99.90
6407;DHT22;3236;51.022;6.818;2024-02-26T08:00:15;7.00;99.90
6407;DHT22;3236;51.022;6.818;2024-02-26T08:02:43;6.70;99.90
6407;DHT22;3236;51.022;6.818;2024-02-26T08:05:10;6.60;99.90
6407;DHT22;3236;51.022;6.818;2024-02-26T08:07:38;6.70;99.90
6407;DHT22;3236;51.022;6.818;2024-02-26T08:10:06;6.90;99.90
6407;DHT22;3236;51.022;6.818;2024-02-26T08:15:00;6.40;99.90
6407;DHT22;3236;51.022;6.818;2024-02-26T08:17:27;6.80;99.90
6407;DHT22;3236;51.022;6.818;2024-02-26T08:20:08;6.80;99.90
6407;DHT22;3236;51.022;6.818;2024-02-26T08:22:37;6.50;99.90
6407;DHT22;3236;51.022;6.818;2024-02-26T08:25:05;6.50;99.90
6407;DHT22;3236;51.022;6.818;2024-02-26T08:27:34;6.60;99.90
6407;DHT22;3236;51.022;6.818;2024-02-26T08:30:01;6.90;99.90
6407;DHT22;3236;51.022;6.818;2024-02-26T08:32:28;6.40;99.90
6407;DHT22;3236;51.022;6.818;2024-02-26T08:34:55;6.70;99.90
6407;DHT22;3236;51.022;6.818;2024-02-26T08:37:22;6.40;99.90
6407;DHT22;3236;51.022;6.818;2024-02-26T08:39:51;6.70;99.90
6407;DHT22;3236;51.022;6.818;2024-02-26T08:44:45;6.40;99.90
6407;DHT22;3236;51.022;6.818;2024-02-26T08:49:42;6.70;99.90
6407;DHT22;3236;51.022;6.818;2024-02-26T08:54:38;6.70;99.90
6407;DHT22;3236;51.022;6.818;2024-02-26T08:57:07;6.70;99.90
6407;DHT22;3236;51.022;6.818;2024-02-26T09:04:30;6.50;99.90
6407;DHT22;3236;51.022;6.818;2024-02-26T09:06:57;6.40;99.90
6407;DHT22;3236;51.022;6.818;2024-02-26T09:09:24;6.90;99.90
6407;DHT22;3236;51.022;6.818;2024-02-26T09:14:22;6.80;99.90
6407;DHT22;3236;51.022;6.818;2024-02-26T09:21:47;6.80;99.90
6407;DHT22;3236;51.022;6.818;2024-02-26T09:31:39;6.90;99.90
6407;DHT22;3236;51.022;6.818;2024-02-26T09:41:33;6.70;99.90
6407;DHT22;3236;51.022;6.818;2024-02-26T09:44:02;7.60;99.90
6407;DHT22;3236;51.022;6.818;2024-02-26T09:46:30;7.10;99.90
6407;DHT22;3236;51.022;6.818;2024-02-26T09:48:59;6.70;99.90
6407;DHT22;3236;51.022;6.818;2024-02-26T09:51:26;6.70;99.90
6407;DHT22;3236;51.022;6.818;2024-02-26T09:53:55;6.90;99.90
6407;DHT22;3236;51.022;6.818;2024-02-26T09:56:23;7.40;99.90
6407;DHT22;3236;51.022;6.818;2024-02-26T09:58:52;7.20;99.90
6407;DHT22;3236;51.022;6.818;2024-02-26T10:01:22;7.40;99.90
6407;DHT22;3236;51.022;6.818;2024-02-26T10:03:55;7.20;99.90
6407;DHT22;3236;51.022;6.818;2024-02-26T10:06:26;7.20;99.90
6407;DHT22;3236;51.022;6.818;2024-02-26T10:08:54;7.20;99.90
6407;DHT22;3236;51.022;6.818;2024-02-26T10:11:24;7.10;99.90
6407;DHT22;3236;51.022;6.818;2024-02-26T10:13:51;7.20;99.90
6407;DHT22;3236;51.022;6.818;2024-02-26T10:16:19;7.50;99.90
6407;DHT22;3236;51.022;6.818;2024-02-26T10:18:47;7.40;99.90
6407;DHT22;3236;51.022;6.818;2024-02-26T10:21:16;7.40;99.90
6407;DHT22;3236;51.022;6.818;2024-02-26T10:23:45;7.90;99.90
6407;DHT22;3236;51.022;6.818;2024-02-26T10:26:13;7.10;99.90
6407;DHT22;3236;51.022;6.818;2024-02-26T10:28:42;7.00;99.90
6407;DHT22;3236;51.022;6.818;2024-02-26T10:31:09;7.20;99.90
6407;DHT22;3236;51.022;6.818;2024-02-26T10:33:38;7.10;99.90
6407;DHT22;3236;51.022;6.818;2024-02-26T10:36:06;7.00;99.90
6407;DHT22;3236;51.022;6.818;2024-02-26T10:38:35;7.00;99.90
6407;DHT22;3236;51.022;6.818;2024-02-26T10:41:04;7.20;99.90
6407;DHT22;3236;51.022;6.818;2024-02-26T10:53:22;7.50;99.90
6407;DHT22;3236;51.022;6.818;2024-02-26T10:55:53;7.50;99.90
6407;DHT22;3236;51.022;6.818;2024-02-26T10:58:23;7.60;99.90
6407;DHT22;3236;51.022;6.818;2024-02-26T11:00:51;7.60;99.90
6407;DHT22;3236;51.022;6.818;2024-02-26T11:03:19;7.40;99.90
6407;DHT22;3236;51.022;6.818;2024-02-26T11:05:48;7.90;99.90
6407;DHT22;3236;51.022;6.818;2024-02-26T11:08:18;8.00;99.90
6407;DHT22;3236;51.022;6.818;2024-02-26T11:10:47;8.00;99.90
6407;DHT22;3236;51.022;6.818;2024-02-26T11:13:15;8.00;99.90
6407;DHT22;3236;51.022;6.818;2024-02-26T11:15:46;8.00;99.90
6407;DHT22;3236;51.022;6.818;2024-02-26T11:18:15;8.10;99.90
6407;DHT22;3236;51.022;6.818;2024-02-26T11:28:16;7.90;99.90
6407;DHT22;3236;51.022;6.818;2024-02-26T11:30:48;7.90;99.90
6407;DHT22;3236;51.022;6.818;2024-02-26T11:45:51;8.10;99.90
6407;DHT22;3236;51.022;6.818;2024-02-26T11:48:25;7.40;99.90
6407;DHT22;3236;51.022;6.818;2024-02-26T11:50:53;7.40;99.90
6407;DHT22;3236;51.022;6.818;2024-02-26T11:53:24;7.80;99.90
6407;DHT22;3236;51.022;6.818;2024-02-26T11:56:15;8.00;99.90
6407;DHT22;3236;51.022;6.818;2024-02-26T11:58:47;7.40;99.90
6407;DHT22;3236;51.022;6.818;2024-02-26T12:01:39;7.60;99.90
6407;DHT22;3236;51.022;6.818;2024-02-26T12:09:39;7.70;99.90
6407;DHT22;3236;51.022;6.818;2024-02-26T12:12:13;7.70;99.90
6407;DHT22;3236;51.022;6.818;2024-02-26T12:44:54;8.40;99.90
6407;DHT22;3236;51.022;6.818;2024-02-26T12:49:50;8.20;99.90
6407;DHT22;3236;51.022;6.818;2024-02-26T13:04:35;8.10;99.90
6407;DHT22;3236;51.022;6.818;2024-02-26T13:07:04;8.10;99.90
6407;DHT22;3236;51.022;6.818;2024-02-26T13:09:35;8.20;99.90
6407;DHT22;3236;51.022;6.818;2024-02-26T13:12:04;8.20;99.90
6407;DHT22;3236;51.022;6.818;2024-02-26T13:24:24;8.30;99.90
6407;DHT22;3236;51.022;6.818;2024-02-26T13:26:56;8.10;99.90
6407;DHT22;3236;51.022;6.818;2024-02-26T13:29:24;8.10;99.90
6407;DHT22;3236;51.022;6.818;2024-02-26T13:31:58;7.80;99.90
6407;DHT22;3236;51.022;6.818;2024-02-26T13:36:53;8.20;99.90
6407;DHT22;3236;51.022;6.818;2024-02-26T13:39:26;8.10;99.90
6407;DHT22;3236;51.022;6.818;2024-02-26T13:41:54;8.10;99.90
6407;DHT22;3236;51.022;6.818;2024-02-26T13:56:41;8.20;99.90
6407;DHT22;3236;51.022;6.818;2024-02-26T14:04:04;8.20;99.90
6407;DHT22;3236;51.022;6.818;2024-02-26T14:11:36;8.50;99.90
6407;DHT22;3236;51.022;6.818;2024-02-26T14:14:08;8.30;99.90
6407;DHT22;3236;51.022;6.818;2024-02-26T14:19:04;8.50;99.90
6407;DHT22;3236;51.022;6.818;2024-02-26T14:33:57;8.50;99.90
6407;DHT22;3236;51.022;6.818;2024-02-26T14:36:24;8.30;99.90
6407;DHT22;3236;51.022;6.818;2024-02-26T14:43:46;8.20;99.90
6407;DHT22;3236;51.022;6.818;2024-02-26T14:46:13;8.40;99.90
6407;DHT22;3236;51.022;6.818;2024-02-26T14:48:42;8.50;99.90
6407;DHT22;3236;51.022;6.818;2024-02-26T14:51:25;8.60;99.90
6407;DHT22;3236;51.022;6.818;2024-02-26T14:56:20;8.70;99.90
6407;DHT22;3236;51.022;6.818;2024-02-26T15:03:43;8.20;99.90
6407;DHT22;3236;51.022;6.818;2024-02-26T15:08:43;8.40;99.90
6407;DHT22;3236;51.022;6.818;2024-02-26T15:23:44;8.60;99.90
6407;DHT22;3236;51.022;6.818;2024-02-26T15:26:12;8.30;99.90
6407;DHT22;3236;51.022;6.818;2024-02-26T15:31:10;8.00;99.90
6407;DHT22;3236;51.022;6.818;2024-02-26T15:33:37;8.50;99.90
6407;DHT22;3236;51.022;6.818;2024-02-26T15:36:07;7.90;99.90
6407;DHT22;3236;51.022;6.818;2024-02-26T15:41:10;8.20;99.90
6407;DHT22;3236;51.022;6.818;2024-02-26T15:43:38;8.20;99.90
6407;DHT22;3236;51.022;6.818;2024-02-26T15:46:06;7.80;99.90
6407;DHT22;3236;51.022;6.818;2024-02-26T15:48:33;8.20;99.90
6407;DHT22;3236;51.022;6.818;2024-02-26T15:53:29;8.10;99.90
6407;DHT22;3236;51.022;6.818;2024-02-26T15:55:56;7.80;99.90
6407;DHT22;3236;51.022;6.818;2024-02-26T16:00:51;8.40;99.90
6407;DHT22;3236;51.022;6.818;2024-02-26T16:03:18;8.40;99.90
6407;DHT22;3236;51.022;6.818;2024-02-26T16:05:46;7.70;99.90
6407;DHT22;3236;51.022;6.818;2024-02-26T16:08:17;8.00;99.90
6407;DHT22;3236;51.022;6.818;2024-02-26T16:16:21;8.00;99.90
6407;DHT22;3236;51.022;6.818;2024-02-26T16:18:51;7.60;99.90
6407;DHT22;3236;51.022;6.818;2024-02-26T16:21:24;7.90;99.90
6407;DHT22;3236;51.022;6.818;2024-02-26T16:23:51;7.80;99.90
6407;DHT22;3236;51.022;6.818;2024-02-26T16:26:20;7.80;99.90
6407;DHT22;3236;51.022;6.818;2024-02-26T16:28:47;7.80;99.90
6407;DHT22;3236;51.022;6.818;2024-02-26T16:31:18;7.80;99.90
6407;DHT22;3236;51.022;6.818;2024-02-26T16:33:45;7.80;99.90
6407;DHT22;3236;51.022;6.818;2024-02-26T16:41:07;7.80;99.90
6407;DHT22;3236;51.022;6.818;2024-02-26T16:46:24;7.40;99.90
6407;DHT22;3236;51.022;6.818;2024-02-26T16:51:19;7.70;99.90
6407;DHT22;3236;51.022;6.818;2024-02-26T16:53:46;7.60;99.90
6407;DHT22;3236;51.022;6.818;2024-02-26T16:56:16;7.60;99.90
6407;DHT22;3236;51.022;6.818;2024-02-26T16:58:44;7.80;99.90
6407;DHT22;3236;51.022;6.818;2024-02-26T17:01:11;7.60;99.90
6407;DHT22;3236;51.022;6.818;2024-02-26T17:06:06;7.60;99.90
6407;DHT22;3236;51.022;6.818;2024-02-26T17:08:33;7.80;99.90
6407;DHT22;3236;51.022;6.818;2024-02-26T17:11:01;7.50;99.90
6407;DHT22;3236;51.022;6.818;2024-02-26T17:13:30;7.60;99.90
6407;DHT22;3236;51.022;6.818;2024-02-26T17:15:58;7.50;99.90
6407;DHT22;3236;51.022;6.818;2024-02-26T17:18:25;7.40;99.90
6407;DHT22;3236;51.022;6.818;2024-02-26T17:20:52;7.20;99.90
6407;DHT22;3236;51.022;6.818;2024-02-26T17:23:23;7.40;99.90
6407;DHT22;3236;51.022;6.818;2024-02-26T17:25:51;7.00;99.90
6407;DHT22;3236;51.022;6.818;2024-02-26T17:28:18;7.00;99.90
6407;DHT22;3236;51.022;6.818;2024-02-26T17:30:45;7.50;99.90
6407;DHT22;3236;51.022;6.818;2024-02-26T17:33:14;7.30;99.90
6407;DHT22;3236;51.022;6.818;2024-02-26T17:35:41;7.60;99.90
6407;DHT22;3236;51.022;6.818;2024-02-26T17:38:08;7.30;99.90
6407;DHT22;3236;51.022;6.818;2024-02-26T17:40:36;7.00;99.90
6407;DHT22;3236;51.022;6.818;2024-02-26T17:43:03;7.30;99.90
6407;DHT22;3236;51.022;6.818;2024-02-26T17:47:58;7.30;99.90
6407;DHT22;3236;51.022;6.818;2024-02-26T17:50:26;7.30;99.90
6407;DHT22;3236;51.022;6.818;2024-02-26T17:52:53;7.50;99.90
6407;DHT22;3236;51.022;6.818;2024-02-26T17:55:22;7.50;99.90
6407;DHT22;3236;51.022;6.818;2024-02-26T17:57:50;7.70;99.90
6407;DHT22;3236;51.022;6.818;2024-02-26T18:00:17;7.10;99.90
6407;DHT22;3236;51.022;6.818;2024-02-26T18:05:12;7.30;99.90
6407;DHT22;3236;51.022;6.818;2024-02-26T18:07:41;7.40;99.90
6407;DHT22;3236;51.022;6.818;2024-02-26T18:10:09;7.80;99.90
6407;DHT22;3236;51.022;6.818;2024-02-26T18:15:05;7.00;99.90
6407;DHT22;3236;51.022;6.818;2024-02-26T18:20:01;7.60;99.90
6407;DHT22;3236;51.022;6.818;2024-02-26T18:22:33;7.40;99.90
6407;DHT22;3236;51.022;6.818;2024-02-26T18:25:16;7.00;99.90
6407;DHT22;3236;51.022;6.818;2024-02-26T18:30:11;7.80;99.90
6407;DHT22;3236;51.022;6.818;2024-02-26T18:35:09;7.60;99.90
6407;DHT22;3236;51.022;6.818;2024-02-26T18:40:10;8.10;99.90
6407;DHT22;3236;51.022;6.818;2024-02-26T18:42:38;7.40;99.90
6407;DHT22;3236;51.022;6.818;2024-02-26T18:45:06;7.40;99.90
6407;DHT22;3236;51.022;6.818;2024-02-26T18:57:26;7.70;99.90
6407;DHT22;3236;51.022;6.818;2024-02-26T18:59:56;7.60;99.90
6407;DHT22;3236;51.022;6.818;2024-02-26T19:17:11;7.40;99.90
6407;DHT22;3236;51.022;6.818;2024-02-26T19:34:26;7.30;99.90
6407;DHT22;3236;51.022;6.818;2024-02-26T19:46:42;7.30;99.90
6407;DHT22;3236;51.022;6.818;2024-02-26T19:51:38;7.40;99.90
6407;DHT22;3236;51.022;6.818;2024-02-26T19:54:06;7.70;99.90
6407;DHT22;3236;51.022;6.818;2024-02-26T19:56:33;7.60;99.90
6407;DHT22;3236;51.022;6.818;2024-02-26T20:01:28;7.40;99.90
6407;DHT22;3236;51.022;6.818;2024-02-26T20:04:03;7.30;99.90
6407;DHT22;3236;51.022;6.818;2024-02-26T20:09:00;7.40;99.90
6407;DHT22;3236;51.022;6.818;2024-02-26T20:11:27;7.40;99.90
6407;DHT22;3236;51.022;6.818;2024-02-26T20:16:28;7.40;99.90
6407;DHT22;3236;51.022;6.818;2024-02-26T20:18:56;7.70;99.90
6407;DHT22;3236;51.022;6.818;2024-02-26T20:21:23;7.40;99.90
6407;DHT22;3236;51.022;6.818;2024-02-26T20:23:50;7.40;99.90
6407;DHT22;3236;51.022;6.818;2024-02-26T20:26:18;7.40;99.90
6407;DHT22;3236;51.022;6.818;2024-02-26T20:28:45;7.40;99.90
6407;DHT22;3236;51.022;6.818;2024-02-26T20:31:12;7.40;99.90
6407;DHT22;3236;51.022;6.818;2024-02-26T20:36:08;7.40;99.90
6407;DHT22;3236;51.022;6.818;2024-02-26T20:38:38;7.40;84.00
6407;DHT22;3236;51.022;6.818;2024-02-26T20:41:05;7.40;42.40
6407;DHT22;3236;51.022;6.818;2024-02-26T20:43:34;7.80;1.00
6407;DHT22;3236;51.022;6.818;2024-02-26T20:48:36;7.40;99.90
6407;DHT22;3236;51.022;6.818;2024-02-26T20:51:05;7.40;99.90
6407;DHT22;3236;51.022;6.818;2024-02-26T20:53:38;7.70;99.90
6407;DHT22;3236;51.022;6.818;2024-02-26T20:58:35;7.50;99.90
6407;DHT22;3236;51.022;6.818;2024-02-26T21:01:03;7.20;99.90
6407;DHT22;3236;51.022;6.818;2024-02-26T21:23:12;7.60;1.00
6407;DHT22;3236;51.022;6.818;2024-02-26T21:33:04;7.90;98.70
6407;DHT22;3236;51.022;6.818;2024-02-26T21:47:51;7.60;67.90
6407;DHT22;3236;51.022;6.818;2024-02-26T21:50:19;7.60;99.90
6407;DHT22;3236;51.022;6.818;2024-02-26T21:52:50;7.50;99.90
6407;DHT22;3236;51.022;6.818;2024-02-26T21:55:17;7.60;99.90
6407;DHT22;3236;51.022;6.818;2024-02-26T21:57:44;7.30;99.90
6407;DHT22;3236;51.022;6.818;2024-02-26T22:00:12;7.90;99.90
6407;DHT22;3236;51.022;6.818;2024-02-26T22:02:39;7.60;99.90
6407;DHT22;3236;51.022;6.818;2024-02-26T22:05:07;7.40;99.90
6407;DHT22;3236;51.022;6.818;2024-02-26T22:07:39;7.60;99.90
6407;DHT22;3236;51.022;6.818;2024-02-26T22:10:15;7.60;99.90
6407;DHT22;3236;51.022;6.818;2024-02-26T22:12:43;7.60;99.90
6407;DHT22;3236;51.022;6.818;2024-02-26T22:15:10;7.60;99.90
6407;DHT22;3236;51.022;6.818;2024-02-26T22:17:37;7.40;99.90
6407;DHT22;3236;51.022;6.818;2024-02-26T22:20:07;7.60;99.90
6407;DHT22;3236;51.022;6.818;2024-02-26T22:22:37;7.40;99.90
6407;DHT22;3236;51.022;6.818;2024-02-26T22:27:35;7.50;99.90
6407;DHT22;3236;51.022;6.818;2024-02-26T22:30:11;7.50;27.10
6407;DHT22;3236;51.022;6.818;2024-02-26T22:35:12;7.30;99.90
6407;DHT22;3236;51.022;6.818;2024-02-26T22:37:40;7.10;99.90
6407;DHT22;3236;51.022;6.818;2024-02-26T22:40:08;7.20;99.90
6407;DHT22;3236;51.022;6.818;2024-02-26T22:42:35;6.90;99.90
6407;DHT22;3236;51.022;6.818;2024-02-26T22:45:04;6.90;99.90
6407;DHT22;3236;51.022;6.818;2024-02-26T22:47:31;7.10;99.90
6407;DHT22;3236;51.022;6.818;2024-02-26T22:49:59;6.80;99.90
6407;DHT22;3236;51.022;6.818;2024-02-26T22:52:29;7.10;99.90
6407;DHT22;3236;51.022;6.818;2024-02-26T22:55:18;6.70;99.90
6407;DHT22;3236;51.022;6.818;2024-02-26T22:57:50;7.00;99.90
6407;DHT22;3236;51.022;6.818;2024-02-26T23:00:17;7.00;99.90
6407;DHT22;3236;51.022;6.818;2024-02-26T23:02:57;6.70;99.90
6407;DHT22;3236;51.022;6.818;2024-02-26T23:05:24;6.90;99.90
6407;DHT22;3236;51.022;6.818;2024-02-26T23:07:52;7.10;99.90
6407;DHT22;3236;51.022;6.818;2024-02-26T23:10:24;6.90;99.90
6407;DHT22;3236;51.022;6.818;2024-02-26T23:12:52;6.90;99.90
6407;DHT22;3236;51.022;6.818;2024-02-26T23:20:14;6.80;99.90
6407;DHT22;3236;51.022;6.818;2024-02-26T23:22:42;7.10;99.90
6407;DHT22;3236;51.022;6.818;2024-02-26T23:25:10;6.50;99.90
6407;DHT22;3236;51.022;6.818;2024-02-26T23:27:43;6.50;99.90
6407;DHT22;3236;51.022;6.818;2024-02-26T23:30:12;6.70;99.90
6407;DHT22;3236;51.022;6.818;2024-02-26T23:32:39;6.80;99.90
6407;DHT22;3236;51.022;6.818;2024-02-26T23:35:08;7.00;99.90
6407;DHT22;3236;51.022;6.818;2024-02-26T23:40:02;6.80;99.90
6407;DHT22;3236;51.022;6.818;2024-02-26T23:44:59;6.90;99.90
6407;DHT22;3236;51.022;6.818;2024-02-26T23:47:26;6.80;99.90
6407;DHT22;3236;51.022;6.818;2024-02-26T23:49:53;6.80;99.90
6407;DHT22;3236;51.022;6.818;2024-02-26T23:52:21;6.90;99.90
6407;DHT22;3236;51.022;6.818;2024-02-26T23:54:48;6.70;99.90
6407;DHT22;3236;51.022;6.818;2024-02-26T23:57:15;6.70;99.90
6407;DHT22;3236;51.022;6.818;2024-02-26T23:59:42;6.70;99.90
